Time;durP1;ratioP1;P1;durP2;ratioP2;P2;SDS_P1;SDS_P2;PMS_P1;PMS_P2;Temp;Humidity;BMP_temperature;BMP_pressure;BME280_temperature;BME280_humidity;BME280_pressure;Samples;Min_cycle;Max_cycle;Signal;HPM_P1;HPM_P2
2023/02/02 00:02:07;;;;;;;;;;;;;;;22.15;37.57;102336.91;7269673;19;153298;-80
2023/02/02 00:04:35;;;;;;;;;;;;;;;22.15;37.39;102337.75;7280826;19;152327;-80
2023/02/02 00:07:04;;;;;;;;;;;;;;;22.14;37.62;102338.88;7267235;19;152835;-80
2023/02/02 00:09:31;;;;;;;;;;;;;;;22.20;38.10;102342.53;7260662;19;153809;-80
2023/02/02 00:11:59;;;;;;;;;;;;;;;22.18;37.90;102344.78;7259407;19;153879;-80
2023/02/02 00:14:27;;;;;;;;;;;;;;;22.20;38.04;102352.94;7262663;19;153803;-80
2023/02/02 00:16:54;;;;;;;;;;;;;;;22.17;37.75;102348.72;7265775;19;153929;-79
2023/02/02 00:19:25;;;;;;;;;;;;;;;22.16;37.65;102347.88;7256910;19;154395;-80
2023/02/02 00:21:53;;;;;;;;;;;;;;;22.14;37.58;102349.28;7256310;19;154359;-80
2023/02/02 00:24:20;;;;;;;;;;;;;;;22.14;37.84;102349.28;7258752;19;153997;-80
2023/02/02 00:26:49;;;;;;;;;;;;;;;22.13;37.98;102359.69;7264180;19;154018;-80
2023/02/02 00:29:18;;;;;;;;;;;;;;;22.14;38.30;102360.53;7257709;19;154396;-81
2023/02/02 00:31:45;;;;;;;;;;;;;;;22.11;37.68;102358.31;7257411;19;154157;-80
2023/02/02 00:34:12;;;;;;;;;;;;;;;22.11;37.93;102355.50;7263377;19;152371;-80
2023/02/02 00:36:40;;;;;;;;;;;;;;;22.10;38.11;102367.88;7270593;19;154353;-80
2023/02/02 00:39:08;;;;;;;;;;;;;;;22.07;37.89;102360.88;7266326;19;155808;-80
2023/02/02 00:41:35;;;;;;;;;;;;;;;22.07;38.28;102340.31;7274169;19;153386;-80
2023/02/02 00:46:33;;;;;;;;;;;;;;;22.06;38.64;102344.25;7274085;19;154403;-81
2023/02/02 00:49:01;;;;;;;;;;;;;;;22.08;38.76;102347.59;7285596;19;153671;-81
2023/02/02 00:51:28;;;;;;;;;;;;;;;22.01;38.90;102341.44;7268992;19;153305;-81
2023/02/02 00:53:55;;;;;;;;;;;;;;;22.04;38.87;102343.66;7270132;19;153082;-80
2023/02/02 00:56:22;;;;;;;;;;;;;;;21.98;39.12;102344.84;7272449;19;153915;-80
2023/02/02 00:58:48;;;;;;;;;;;;;;;21.96;39.11;102341.44;7267348;19;153992;-81
2023/02/02 01:01:16;;;;;;;;;;;;;;;21.95;39.01;102343.41;7269916;19;152919;-80
2023/02/02 01:03:44;;;;;;;;;;;;;;;21.94;39.36;102340.91;7272226;19;153930;-81
2023/02/02 01:06:10;;;;;;;;;;;;;;;21.91;39.67;102338.59;7272036;19;154298;-80
2023/02/02 01:08:38;;;;;;;;;;;;;;;21.88;39.46;102337.22;7271862;19;153188;-80
2023/02/02 01:11:05;;;;;;;;;;;;;;;21.87;39.91;102332.72;7274959;19;155502;-81
2023/02/02 01:13:33;;;;;;;;;;;;;;;21.85;39.70;102325.69;7268363;19;154073;-81
2023/02/02 01:16:01;;;;;;;;;;;;;;;21.83;39.91;102322.31;7268393;19;153955;-81
2023/02/02 01:18:29;;;;;;;;;;;;;;;21.83;39.78;102319.50;7269769;19;154068;-81
2023/02/02 01:20:57;;;;;;;;;;;;;;;21.81;40.31;102328.19;7267005;19;153564;-80
2023/02/02 01:23:24;;;;;;;;;;;;;;;21.80;40.03;102325.69;7266212;19;155967;-80
2023/02/02 01:25:52;;;;;;;;;;;;;;;21.79;40.16;102332.44;7268023;19;153623;-81
2023/02/02 01:28:19;;;;;;;;;;;;;;;21.77;40.01;102335.53;7270732;19;153496;-81
2023/02/02 01:30:47;;;;;;;;;;;;;;;21.75;40.05;102329.34;7267918;19;154023;-81
2023/02/02 01:33:15;;;;;;;;;;;;;;;21.74;40.22;102344.53;7277611;19;156068;-80
2023/02/02 01:35:45;;;;;;;;;;;;;;;21.69;40.34;102336.94;7266440;19;153503;-80
2023/02/02 01:38:12;;;;;;;;;;;;;;;21.66;40.69;102334.72;7262911;19;153672;-81
2023/02/02 01:40:42;;;;;;;;;;;;;;;21.66;40.62;102334.72;7265192;19;154676;-81
2023/02/02 01:43:21;;;;;;;;;;;;;;;21.65;40.57;102340.63;7263753;19;154332;-82
2023/02/02 01:45:47;;;;;;;;;;;;;;;21.64;40.15;102339.75;7263118;19;155857;-81
2023/02/02 01:48:15;;;;;;;;;;;;;;;21.57;40.25;102327.13;7265837;19;153471;-81
2023/02/02 01:50:42;;;;;;;;;;;;;;;21.54;40.25;102319.22;7267876;19;153461;-81
2023/02/02 01:53:10;;;;;;;;;;;;;;;21.54;40.26;102324.84;7276387;19;157783;-81
2023/02/02 01:55:38;;;;;;;;;;;;;;;21.50;40.04;102324.59;7265950;19;154934;-82
2023/02/02 01:58:09;;;;;;;;;;;;;;;21.47;39.96;102333.59;7263242;19;154015;-80
2023/02/02 02:00:38;;;;;;;;;;;;;;;21.46;40.12;102336.69;7268086;19;153849;-81
2023/02/02 02:03:07;;;;;;;;;;;;;;;21.41;40.11;102340.31;7268957;19;153289;-81
2023/02/02 02:05:36;;;;;;;;;;;;;;;21.41;40.32;102340.31;7265794;19;154775;-81
2023/02/02 02:08:07;;;;;;;;;;;;;;;21.35;40.17;102346.25;7272496;19;152441;-81
2023/02/02 02:10:34;;;;;;;;;;;;;;;21.28;40.22;102344.53;7275384;19;156125;-81
2023/02/02 02:13:01;;;;;;;;;;;;;;;21.31;40.32;102340.31;7271267;19;156072;-81
2023/02/02 02:18:11;;;;;;;;;;;;;;;21.24;39.95;102339.75;7267497;19;155333;-80
2023/02/02 02:28:15;;;;;;;;;;;;;;;21.13;40.05;102352.94;7267410;19;153705;-80
2023/02/02 02:30:45;;;;;;;;;;;;;;;21.13;40.12;102340.84;7269443;19;155555;-81
2023/02/02 02:33:18;;;;;;;;;;;;;;;21.10;40.29;102342.25;7267713;19;153649;-81
2023/02/02 02:35:46;;;;;;;;;;;;;;;21.06;40.09;102343.06;7264246;19;153031;-80
2023/02/02 02:38:19;;;;;;;;;;;;;;;21.00;40.41;102345.03;7270523;19;153842;-81
2023/02/02 02:40:46;;;;;;;;;;;;;;;21.03;40.34;102340.81;7266488;19;154055;-79
2023/02/02 02:43:16;;;;;;;;;;;;;;;21.02;40.17;102348.41;7267164;19;154451;-79
2023/02/02 02:45:44;;;;;;;;;;;;;;;20.98;40.13;102341.66;7268566;19;154740;-79
2023/02/02 02:48:11;;;;;;;;;;;;;;;20.96;40.51;102346.69;7270848;19;152907;-79
2023/02/02 02:50:38;;;;;;;;;;;;;;;20.93;40.25;102344.44;7269244;19;153630;-79
2023/02/02 02:53:07;;;;;;;;;;;;;;;20.92;40.51;102347.53;7265551;19;154887;-79
2023/02/02 02:55:37;;;;;;;;;;;;;;;20.90;40.43;102344.13;7263558;19;151836;-79
2023/02/02 02:58:08;;;;;;;;;;;;;;;20.88;40.39;102347.25;7267503;19;154643;-79
2023/02/02 03:00:38;;;;;;;;;;;;;;;20.89;40.42;102336.84;7273237;19;153350;-79
2023/02/02 03:03:06;;;;;;;;;;;;;;;20.84;40.78;102332.91;7261740;19;153830;-80
2023/02/02 03:05:36;;;;;;;;;;;;;;;20.86;40.86;102332.63;7261047;19;153669;-81
2023/02/02 03:08:06;;;;;;;;;;;;;;;20.83;40.96;102324.75;7264885;19;153038;-79
2023/02/02 03:10:34;;;;;;;;;;;;;;;20.79;41.09;102326.44;7263828;19;153572;-80
2023/02/02 03:13:05;;;;;;;;;;;;;;;20.76;40.88;102322.19;7262657;19;153800;-79
2023/02/02 03:15:33;;;;;;;;;;;;;;;20.78;41.18;102335.97;7261697;19;153327;-79
2023/02/02 03:18:00;;;;;;;;;;;;;;;20.77;41.44;102343.56;7263498;19;155704;-79
2023/02/02 03:20:27;;;;;;;;;;;;;;;20.76;41.53;102352.25;7258543;19;153754;-79
2023/02/02 03:22:54;;;;;;;;;;;;;;;20.73;41.27;102339.63;7267617;19;153371;-79
2023/02/02 03:25:22;;;;;;;;;;;;;;;20.71;41.56;102343.84;7261897;19;153999;-80
2023/02/02 03:27:50;;;;;;;;;;;;;;;20.69;41.35;102344.09;7261889;19;154139;-80
2023/02/02 03:30:17;;;;;;;;;;;;;;;20.66;41.62;102347.47;7264559;19;153910;-80
2023/02/02 03:32:45;;;;;;;;;;;;;;;20.63;41.59;102350.81;7261934;19;153862;-80
2023/02/02 03:35:12;;;;;;;;;;;;;;;20.65;41.22;102347.72;7259090;19;154501;-81
2023/02/02 03:37:39;;;;;;;;;;;;;;;20.61;41.72;102341.81;7258374;19;154544;-80
2023/02/02 03:40:07;;;;;;;;;;;;;;;20.59;41.64;102346.88;7263409;19;153778;-79
2023/02/02 03:42:34;;;;;;;;;;;;;;;20.57;41.46;102343.50;7270258;19;153130;-79
2023/02/02 03:45:00;;;;;;;;;;;;;;;20.55;41.64;102342.06;7275439;19;153587;-80
2023/02/02 03:47:28;;;;;;;;;;;;;;;20.56;42.07;102341.81;7268011;19;154124;-79
2023/02/02 03:49:55;;;;;;;;;;;;;;;20.53;41.94;102352.75;7267540;19;153565;-79
2023/02/02 03:52:22;;;;;;;;;;;;;;;20.53;41.67;102347.97;7264801;19;154520;-79
2023/02/02 03:54:50;;;;;;;;;;;;;;;20.48;41.77;102345.16;7268013;19;153015;-80
2023/02/02 03:57:17;;;;;;;;;;;;;;;20.47;41.70;102339.78;7268405;19;153250;-80
2023/02/02 03:59:45;;;;;;;;;;;;;;;20.45;42.13;102342.88;7267045;19;155007;-79
2023/02/02 04:02:12;;;;;;;;;;;;;;;20.43;42.00;102356.34;7270819;19;153720;-79
2023/02/02 04:04:39;;;;;;;;;;;;;;;20.40;42.00;102343.69;7272938;19;153339;-79
2023/02/02 04:07:06;;;;;;;;;;;;;;;20.39;42.11;102353.25;7264383;19;153980;-79
2023/02/02 04:09:32;;;;;;;;;;;;;;;20.38;41.89;102359.13;7271227;19;154844;-81
2023/02/02 04:11:59;;;;;;;;;;;;;;;20.37;42.28;102349.00;7269198;19;154616;-80
2023/02/02 04:14:26;;;;;;;;;;;;;;;20.36;41.82;102355.72;7270731;19;153061;-79
2023/02/02 04:16:53;;;;;;;;;;;;;;;20.36;41.82;102355.72;7273491;19;154120;-79
2023/02/02 04:19:20;;;;;;;;;;;;;;;20.33;41.87;102350.69;7268949;19;154278;-79
2023/02/02 04:21:47;;;;;;;;;;;;;;;20.33;41.77;102356.28;7272348;19;153693;-80
2023/02/02 04:24:14;;;;;;;;;;;;;;;20.31;42.11;102353.75;7276203;19;153995;-79
2023/02/02 04:26:41;;;;;;;;;;;;;;;20.29;41.78;102360.72;7280274;19;153909;-79
2023/02/02 04:29:08;;;;;;;;;;;;;;;20.25;41.91;102368.00;7274417;19;153597;-79
2023/02/02 04:31:35;;;;;;;;;;;;;;;20.24;42.12;102355.09;7272517;19;153533;-80
2023/02/02 04:34:02;;;;;;;;;;;;;;;20.21;41.76;102366.88;7273241;19;154011;-80
2023/02/02 04:36:29;;;;;;;;;;;;;;;20.19;41.81;102367.13;7274447;19;153981;-80
2023/02/02 04:38:56;;;;;;;;;;;;;;;20.20;41.88;102365.16;7272758;19;154362;-81
2023/02/02 04:41:23;;;;;;;;;;;;;;;20.16;41.77;102353.66;7271954;19;152986;-79
2023/02/02 04:43:50;;;;;;;;;;;;;;;20.17;41.65;102352.50;7274262;19;154158;-80
2023/02/02 04:46:17;;;;;;;;;;;;;;;20.12;42.08;102341.28;7273228;19;153873;-79
2023/02/02 04:48:46;;;;;;;;;;;;;;;20.10;41.81;102345.47;7276425;19;154614;-79
2023/02/02 04:51:14;;;;;;;;;;;;;;;20.09;41.90;102343.75;7266168;19;154392;-79
2023/02/02 04:53:41;;;;;;;;;;;;;;;20.12;41.60;102337.63;7269877;19;152423;-80
2023/02/02 04:56:11;;;;;;;;;;;;;;;20.09;41.75;102353.03;7267440;19;153644;-80
2023/02/02 04:58:38;;;;;;;;;;;;;;;20.05;41.65;102351.03;7268200;19;153823;-81
2023/02/02 05:01:08;;;;;;;;;;;;;;;20.06;41.61;102345.16;7267979;19;153003;-79
2023/02/02 05:03:35;;;;;;;;;;;;;;;20.05;41.90;102342.63;7269555;19;153060;-80
2023/02/02 05:06:03;;;;;;;;;;;;;;;20.02;41.73;102351.59;7267098;19;154147;-79
2023/02/02 05:08:30;;;;;;;;;;;;;;;20.01;42.02;102350.75;7268644;19;152897;-81
2023/02/02 05:10:57;;;;;;;;;;;;;;;19.97;42.01;102347.63;7275021;19;153954;-79
2023/02/02 05:13:24;;;;;;;;;;;;;;;19.97;41.79;102361.66;7268828;19;153824;-79
2023/02/02 05:15:52;;;;;;;;;;;;;;;19.95;42.02;102363.88;7267228;19;155810;-79
2023/02/02 05:18:19;;;;;;;;;;;;;;;19.92;41.95;102363.59;7265279;19;154145;-79
2023/02/02 05:20:46;;;;;;;;;;;;;;;19.95;42.30;102363.03;7268548;19;152755;-80
2023/02/02 05:23:12;;;;;;;;;;;;;;;19.94;42.19;102370.59;7267895;19;155545;-80
2023/02/02 05:25:39;;;;;;;;;;;;;;;19.91;42.19;102359.94;7267432;19;154054;-80
2023/02/02 05:28:06;;;;;;;;;;;;;;;19.91;42.32;102362.75;7270745;19;152426;-80
2023/02/02 05:30:33;;;;;;;;;;;;;;;19.92;42.16;102358.81;7271276;19;153123;-80
2023/02/02 05:33:00;;;;;;;;;;;;;;;19.91;42.49;102353.47;7279025;19;155043;-79
2023/02/02 05:35:28;;;;;;;;;;;;;;;19.90;42.05;102349.81;7268701;19;153430;-79
2023/02/02 05:37:55;;;;;;;;;;;;;;;19.90;42.27;102354.59;7269178;19;154840;-79
2023/02/02 05:40:24;;;;;;;;;;;;;;;19.88;42.32;102356.81;7269695;19;154584;-80
2023/02/02 05:42:51;;;;;;;;;;;;;;;19.85;42.32;102355.38;7273071;19;153496;-79
2023/02/02 05:45:18;;;;;;;;;;;;;;;19.79;42.40;102358.44;7266390;19;154937;-79
2023/02/02 05:47:45;;;;;;;;;;;;;;;19.79;42.28;102356.50;7265202;19;154202;-79
2023/02/02 05:50:12;;;;;;;;;;;;;;;19.84;42.67;102355.69;7268029;19;155934;-79
2023/02/02 05:52:40;;;;;;;;;;;;;;;19.80;42.60;102363.78;7264279;19;154406;-79
2023/02/02 05:55:08;;;;;;;;;;;;;;;19.84;42.37;102361.28;7276469;19;153890;-80
2023/02/02 05:57:35;;;;;;;;;;;;;;;19.84;42.22;102369.69;7269737;19;154224;-79
2023/02/02 06:00:03;;;;;;;;;;;;;;;19.87;42.18;102369.16;7266187;19;152684;-79
2023/02/02 06:02:29;;;;;;;;;;;;;;;19.89;43.04;102375.34;7267879;19;155781;-80
2023/02/02 06:04:57;;;;;;;;;;;;;;;19.90;42.96;102375.06;7264548;19;155820;-79
2023/02/02 06:07:24;;;;;;;;;;;;;;;19.98;42.98;102368.13;7266353;19;153231;-79
2023/02/02 06:09:50;;;;;;;;;;;;;;;20.04;43.02;102381.06;7267783;19;154473;-79
2023/02/02 06:12:17;;;;;;;;;;;;;;;20.10;43.05;102377.19;7270200;19;154464;-80
2023/02/02 06:14:44;;;;;;;;;;;;;;;20.15;42.86;102376.38;7273813;19;154227;-79
2023/02/02 06:17:11;;;;;;;;;;;;;;;20.21;42.62;102369.69;7267178;19;153840;-79
2023/02/02 06:19:38;;;;;;;;;;;;;;;20.27;42.78;102379.78;7264970;19;153461;-78
2023/02/02 06:22:06;;;;;;;;;;;;;;;20.32;42.69;102374.25;7271104;19;152710;-78
2023/02/02 06:24:33;;;;;;;;;;;;;;;20.36;42.22;102375.38;7265428;19;156788;-78
2023/02/02 06:27:00;;;;;;;;;;;;;;;20.42;42.30;102371.50;7266358;19;152678;-79
2023/02/02 06:29:27;;;;;;;;;;;;;;;20.47;42.30;102367.88;7267543;19;153522;-79
2023/02/02 06:31:54;;;;;;;;;;;;;;;20.52;42.36;102367.91;7265963;19;154402;-79
2023/02/02 06:34:22;;;;;;;;;;;;;;;20.56;42.14;102378.31;7268985;19;152250;-79
2023/02/02 06:36:49;;;;;;;;;;;;;;;20.62;41.89;102384.81;7274670;19;152727;-78
2023/02/02 06:39:16;;;;;;;;;;;;;;;20.66;41.95;102381.16;7271153;19;153383;-78
2023/02/02 06:41:45;;;;;;;;;;;;;;;20.69;41.69;102389.03;7266944;19;153742;-78
2023/02/02 06:44:14;;;;;;;;;;;;;;;20.74;41.38;102389.06;7267010;19;155604;-79
2023/02/02 06:46:41;;;;;;;;;;;;;;;20.76;41.29;102389.63;7269710;19;153994;-79
2023/02/02 06:49:08;;;;;;;;;;;;;;;20.80;41.29;102385.13;7271567;19;153945;-79
2023/02/02 06:51:35;;;;;;;;;;;;;;;20.84;41.45;102386.28;7270225;19;153616;-79
2023/02/02 06:54:02;;;;;;;;;;;;;;;20.89;41.38;102393.91;7271073;19;153090;-79
2023/02/02 06:56:29;;;;;;;;;;;;;;;20.91;40.93;102397.25;7270480;19;153468;-79
2023/02/02 06:58:57;;;;;;;;;;;;;;;20.95;41.00;102401.19;7275425;19;153464;-79
2023/02/02 07:01:24;;;;;;;;;;;;;;;20.97;41.06;102400.94;7269404;19;152970;-79
2023/02/02 07:03:51;;;;;;;;;;;;;;;20.99;41.14;102399.53;7266678;19;154455;-78
2023/02/02 07:06:19;;;;;;;;;;;;;;;20.99;40.86;102393.91;7267912;19;153463;-79
2023/02/02 07:08:47;;;;;;;;;;;;;;;21.02;41.15;102398.16;7268667;19;153792;-79
2023/02/02 07:11:28;;;;;;;;;;;;;;;21.03;41.21;102394.22;7266234;19;154046;-80
2023/02/02 07:13:56;;;;;;;;;;;;;;;21.03;41.14;102392.22;7269628;19;153376;-80
2023/02/02 07:16:22;;;;;;;;;;;;;;;21.02;40.62;102390.56;7264565;19;154662;-78
2023/02/02 07:18:49;;;;;;;;;;;;;;;21.03;40.95;102395.03;7265416;19;154422;-78
2023/02/02 07:21:18;;;;;;;;;;;;;;;21.03;40.73;102397.03;7273532;19;152709;-79
2023/02/02 07:23:45;;;;;;;;;;;;;;;21.04;41.80;102393.06;7259323;19;153409;-78
2023/02/02 07:26:13;;;;;;;;;;;;;;;21.04;40.69;102393.06;7267748;19;152410;-78
2023/02/02 07:28:40;;;;;;;;;;;;;;;21.03;39.99;102399.84;7266709;19;153169;-77
2023/02/02 07:31:10;;;;;;;;;;;;;;;21.03;39.34;102400.66;7263666;19;154970;-77
2023/02/02 07:33:40;;;;;;;;;;;;;;;21.00;39.13;102398.41;7266056;19;152964;-78
2023/02/02 07:36:07;;;;;;;;;;;;;;;21.01;38.96;102402.06;7263387;19;154195;-77
2023/02/02 07:38:35;;;;;;;;;;;;;;;20.99;38.62;102393.06;7265661;19;153997;-77
2023/02/02 07:41:03;;;;;;;;;;;;;;;20.98;38.88;102394.19;7267308;19;153936;-78
2023/02/02 07:43:30;;;;;;;;;;;;;;;20.96;38.90;102407.66;7286056;19;153774;-77
2023/02/02 07:46:00;;;;;;;;;;;;;;;20.93;38.87;102408.22;7280471;19;152260;-78
2023/02/02 07:48:29;;;;;;;;;;;;;;;20.75;38.07;102421.66;7283480;19;153104;-77
2023/02/02 07:50:58;;;;;;;;;;;;;;;20.56;38.07;102417.63;7280191;19;153267;-79
2023/02/02 07:53:25;;;;;;;;;;;;;;;20.53;38.82;102422.94;7277626;19;154030;-78
2023/02/02 07:55:52;;;;;;;;;;;;;;;20.53;38.89;102420.13;7285130;19;154260;-79
2023/02/02 07:58:19;;;;;;;;;;;;;;;20.54;38.64;102410.56;7280530;19;156048;-80
2023/02/02 08:00:46;;;;;;;;;;;;;;;20.54;39.00;102414.22;7280929;19;153122;-79
2023/02/02 08:03:14;;;;;;;;;;;;;;;20.52;38.68;102421.25;7282024;19;154691;-80
2023/02/02 08:05:41;;;;;;;;;;;;;;;20.50;38.52;102413.09;7288666;19;153862;-79
2023/02/02 08:08:08;;;;;;;;;;;;;;;20.50;38.71;102424.31;7283616;19;153566;-79
2023/02/02 08:10:35;;;;;;;;;;;;;;;20.47;38.75;102424.88;7282819;19;153830;-79
2023/02/02 08:13:02;;;;;;;;;;;;;;;20.44;39.00;102430.19;7280608;19;153453;-79
2023/02/02 08:15:29;;;;;;;;;;;;;;;20.40;39.01;102436.31;7285171;19;155326;-79
2023/02/02 08:17:58;;;;;;;;;;;;;;;20.38;38.87;102435.78;7282704;19;153866;-78
2023/02/02 08:20:25;;;;;;;;;;;;;;;20.37;38.99;102445.31;7283746;19;153588;-80
2023/02/02 08:22:52;;;;;;;;;;;;;;;20.45;38.75;102441.13;7278483;19;153105;-79
2023/02/02 08:25:19;;;;;;;;;;;;;;;20.48;39.06;102446.22;7282255;19;153983;-77
2023/02/02 08:27:46;;;;;;;;;;;;;;;20.51;39.27;102450.44;7287371;19;153708;-81
2023/02/02 08:30:13;;;;;;;;;;;;;;;20.51;38.70;102450.44;7286499;19;154495;-81
2023/02/02 08:32:40;;;;;;;;;;;;;;;20.50;38.81;102454.34;7284837;19;153217;-78
2023/02/02 08:35:08;;;;;;;;;;;;;;;20.51;39.03;102465.31;7274559;19;153160;-78
2023/02/02 08:37:35;;;;;;;;;;;;;;;20.55;39.05;102468.44;7273432;19;153597;-78
2023/02/02 08:40:02;;;;;;;;;;;;;;;20.60;39.04;102454.41;7279485;19;153181;-78
2023/02/02 08:42:29;;;;;;;;;;;;;;;20.60;39.04;102463.69;7274398;19;154237;-78
2023/02/02 08:44:56;;;;;;;;;;;;;;;20.63;38.66;102463.13;7277068;19;154192;-79
2023/02/02 08:47:43;;;;;;;;;;;;;;;20.63;38.91;102463.13;7286719;19;153808;-78
2023/02/02 08:50:10;;;;;;;;;;;;;;;20.66;39.02;102468.22;7277777;19;154733;-80
2023/02/02 08:52:38;;;;;;;;;;;;;;;20.67;38.79;102469.09;7276454;19;153004;-79
2023/02/02 08:55:06;;;;;;;;;;;;;;;20.66;39.10;102461.75;7271035;19;153824;-78
2023/02/02 08:57:33;;;;;;;;;;;;;;;20.67;39.03;102469.91;7271251;19;153803;-78
2023/02/02 09:00:00;;;;;;;;;;;;;;;20.66;39.09;102457.00;7271493;19;153150;-78
2023/02/02 09:02:27;;;;;;;;;;;;;;;20.68;38.74;102453.91;7267744;19;153331;-78
2023/02/02 09:04:54;;;;;;;;;;;;;;;20.69;38.70;102459.25;7269022;19;154408;-78
2023/02/02 09:07:22;;;;;;;;;;;;;;;20.69;38.71;102470.50;7268254;19;153627;-79
2023/02/02 09:09:51;;;;;;;;;;;;;;;20.67;38.94;102464.28;7275647;19;153819;-78
2023/02/02 09:12:18;;;;;;;;;;;;;;;20.68;38.86;102467.94;7271779;19;154616;-78
2023/02/02 09:14:46;;;;;;;;;;;;;;;20.67;39.01;102467.09;7268483;19;153042;-78
2023/02/02 09:17:13;;;;;;;;;;;;;;;20.68;39.05;102471.59;7266500;19;154686;-78
2023/02/02 09:19:40;;;;;;;;;;;;;;;20.69;38.91;102464.03;7267745;19;153766;-78
2023/02/02 09:22:07;;;;;;;;;;;;;;;20.69;38.92;102469.63;7266919;19;154216;-78
2023/02/02 09:24:35;;;;;;;;;;;;;;;20.69;38.55;102478.06;7269556;19;155174;-78
2023/02/02 09:27:02;;;;;;;;;;;;;;;20.71;38.63;102484.25;7269410;19;152496;-78
2023/02/02 09:29:29;;;;;;;;;;;;;;;20.70;38.84;102475.00;7266120;19;155799;-78
2023/02/02 09:31:57;;;;;;;;;;;;;;;20.68;38.51;102471.59;7273686;19;155078;-79
2023/02/02 09:34:24;;;;;;;;;;;;;;;20.71;38.58;102481.47;7257104;19;154008;-78
2023/02/02 09:36:51;;;;;;;;;;;;;;;20.69;38.70;102490.16;7263753;19;153724;-80
2023/02/02 09:39:19;;;;;;;;;;;;;;;20.67;38.90;102483.94;7267836;19;153520;-79
2023/02/02 09:41:51;;;;;;;;;;;;;;;20.66;38.88;102485.09;7266529;19;153027;-81
2023/02/02 09:44:19;;;;;;;;;;;;;;;20.66;38.78;102482.28;7265778;19;156850;-79
2023/02/02 09:46:46;;;;;;;;;;;;;;;20.65;38.68;102483.38;7267021;19;153412;-79
2023/02/02 09:49:16;;;;;;;;;;;;;;;20.64;39.11;102498.53;7268300;19;153400;-79
2023/02/02 09:51:48;;;;;;;;;;;;;;;20.61;38.76;102510.31;7266375;19;154642;-79
2023/02/02 09:54:18;;;;;;;;;;;;;;;20.59;38.98;102497.66;7272484;19;152553;-79
2023/02/02 09:56:50;;;;;;;;;;;;;;;20.58;38.78;102505.22;7261315;19;153846;-80
2023/02/02 09:59:21;;;;;;;;;;;;;;;20.54;39.08;102503.22;7265376;19;152751;-79
2023/02/02 10:01:54;;;;;;;;;;;;;;;20.53;39.24;102496.81;7264908;19;154020;-79
2023/02/02 10:04:26;;;;;;;;;;;;;;;20.53;38.81;102496.81;7261410;19;153610;-79
2023/02/02 10:06:56;;;;;;;;;;;;;;;20.54;39.23;102492.84;7261264;19;153664;-79
2023/02/02 10:09:26;;;;;;;;;;;;;;;20.50;39.04;102497.31;7263155;19;153801;-79
2023/02/02 10:11:56;;;;;;;;;;;;;;;20.50;39.31;102499.28;7264888;19;153612;-81
2023/02/02 10:14:26;;;;;;;;;;;;;;;20.49;38.88;102486.38;7271998;19;153170;-79
2023/02/02 10:16:55;;;;;;;;;;;;;;;20.48;38.92;102499.56;7262950;19;153465;-81
2023/02/02 10:19:27;;;;;;;;;;;;;;;20.47;39.27;102492.25;7265828;19;152990;-79
2023/02/02 10:21:58;;;;;;;;;;;;;;;20.44;39.02;102492.81;7261925;19;153547;-80
2023/02/02 10:24:28;;;;;;;;;;;;;;;20.47;39.04;102492.25;7263035;19;153998;-79
2023/02/02 10:26:57;;;;;;;;;;;;;;;20.48;39.28;102502.38;7262473;19;153927;-79
2023/02/02 10:29:24;;;;;;;;;;;;;;;20.47;39.47;102503.50;7262075;19;154236;-79
2023/02/02 10:31:54;;;;;;;;;;;;;;;20.51;39.32;102504.63;7263590;19;154174;-79
2023/02/02 10:34:26;;;;;;;;;;;;;;;20.57;39.08;102519.56;7261907;19;153399;-79
2023/02/02 10:36:53;;;;;;;;;;;;;;;20.64;39.13;102522.97;7266510;19;154004;-78
2023/02/02 10:39:21;;;;;;;;;;;;;;;20.68;39.46;102522.16;7262811;19;154090;-79
2023/02/02 10:41:55;;;;;;;;;;;;;;;20.70;39.11;102527.50;7266430;19;153686;-79
2023/02/02 10:44:25;;;;;;;;;;;;;;;20.71;39.40;102518.81;7270064;19;153380;-80
2023/02/02 10:46:54;;;;;;;;;;;;;;;20.75;39.07;102527.53;7265530;19;153452;-79
2023/02/02 10:49:22;;;;;;;;;;;;;;;20.77;39.34;102531.75;7266519;19;152907;-79
2023/02/02 10:51:53;;;;;;;;;;;;;;;20.80;39.10;102530.38;7265504;19;155416;-80
2023/02/02 10:54:31;;;;;;;;;;;;;;;20.81;39.02;102529.25;7264270;19;153510;-79
2023/02/02 10:57:09;;;;;;;;;;;;;;;20.83;39.30;102532.66;7265667;19;154319;-79
2023/02/02 10:59:43;;;;;;;;;;;;;;;20.86;39.27;102523.66;7272126;19;154468;-79
2023/02/02 11:02:10;;;;;;;;;;;;;;;20.88;38.81;102527.06;7262983;19;154792;-79
2023/02/02 11:07:19;;;;;;;;;;;;;;;20.92;39.18;102513.31;7263325;19;152603;-79
2023/02/02 11:09:46;;;;;;;;;;;;;;;20.94;38.78;102508.28;7264650;19;153387;-79
2023/02/02 11:12:14;;;;;;;;;;;;;;;20.93;39.01;102507.41;7262267;19;155603;-79
2023/02/02 11:14:45;;;;;;;;;;;;;;;20.94;38.86;102502.66;7261527;19;152911;-79
2023/02/02 11:17:15;;;;;;;;;;;;;;;20.95;38.76;102498.69;7260550;19;154127;-79
2023/02/02 11:19:42;;;;;;;;;;;;;;;20.97;38.85;102504.91;7263433;19;153767;-79
2023/02/02 11:22:22;;;;;;;;;;;;;;;20.98;38.80;102503.78;7267489;19;152505;-79
2023/02/02 11:24:49;;;;;;;;;;;;;;;20.97;38.84;102502.94;7257606;19;153482;-80
2023/02/02 11:27:19;;;;;;;;;;;;;;;20.97;38.94;102508.56;7263366;19;153743;-79
2023/02/02 11:29:48;;;;;;;;;;;;;;;20.97;38.88;102504.91;7261269;19;154769;-82
2023/02/02 11:32:17;;;;;;;;;;;;;;;20.97;38.72;102507.72;7262175;19;155036;-79
2023/02/02 11:34:44;;;;;;;;;;;;;;;20.97;38.73;102494.50;7259942;19;154222;-78
2023/02/02 11:37:13;;;;;;;;;;;;;;;20.98;39.09;102493.41;7261839;19;155221;-81
2023/02/02 11:39:41;;;;;;;;;;;;;;;20.98;38.83;102484.13;7262826;19;154765;-79
2023/02/02 11:42:11;;;;;;;;;;;;;;;20.98;38.94;102478.50;7261498;19;153618;-79
2023/02/02 11:44:38;;;;;;;;;;;;;;;20.99;38.91;102483.81;7268453;19;152491;-79
2023/02/02 11:47:05;;;;;;;;;;;;;;;21.00;38.60;102485.53;7260928;19;152346;-79
2023/02/02 11:49:37;;;;;;;;;;;;;;;20.98;38.93;102482.16;7263335;19;153666;-79
2023/02/02 11:52:12;;;;;;;;;;;;;;;21.00;39.08;102481.88;7258102;19;154324;-79
2023/02/02 11:58:01;;;;;;;;;;;;;;;20.94;38.95;102480.16;7264897;19;154323;-80
2023/02/02 12:00:29;;;;;;;;;;;;;;;20.95;39.12;102481.84;7261503;19;155187;-79
2023/02/02 12:02:57;;;;;;;;;;;;;;;20.90;39.17;102468.59;7260860;19;154661;-79
2023/02/02 12:05:32;;;;;;;;;;;;;;;20.89;38.75;102469.75;7260808;19;153486;-79
2023/02/02 12:07:59;;;;;;;;;;;;;;;20.86;39.06;102468.31;7268791;19;153983;-80
2023/02/02 12:10:30;;;;;;;;;;;;;;;20.84;39.15;102459.34;7263676;19;153430;-79
2023/02/02 12:13:06;;;;;;;;;;;;;;;20.84;38.83;102461.31;7261341;19;154748;-79
2023/02/02 12:15:36;;;;;;;;;;;;;;;20.84;39.20;102464.09;7263597;19;153198;-79
2023/02/02 12:18:14;;;;;;;;;;;;;;;20.82;38.75;102452.28;7266577;19;154211;-79
2023/02/02 12:20:49;;;;;;;;;;;;;;;20.80;38.87;102463.78;7261699;19;153968;-79
2023/02/02 12:23:19;;;;;;;;;;;;;;;20.80;39.08;102443.31;7263510;19;155691;-79
2023/02/02 12:25:49;;;;;;;;;;;;;;;20.80;39.20;102446.13;7264773;19;153721;-79
2023/02/02 12:28:24;;;;;;;;;;;;;;;20.78;39.16;102443.56;7270412;19;155802;-79
2023/02/02 12:30:54;;;;;;;;;;;;;;;20.76;39.21;102439.31;7270306;19;155083;-79
2023/02/02 12:33:23;;;;;;;;;;;;;;;20.74;38.90;102436.81;7268796;19;153553;-79
2023/02/02 12:35:53;;;;;;;;;;;;;;;20.72;38.92;102435.38;7269860;19;153639;-78
2023/02/02 12:38:23;;;;;;;;;;;;;;;20.72;38.90;102427.78;7270095;19;154157;-79
2023/02/02 12:40:54;;;;;;;;;;;;;;;20.71;39.10;102437.38;7269507;19;153962;-78
2023/02/02 12:43:28;;;;;;;;;;;;;;;20.67;39.27;102419.34;7270294;19;151765;-79
2023/02/02 12:46:05;;;;;;;;;;;;;;;20.66;38.95;102419.63;7270788;19;154722;-79
2023/02/02 12:48:34;;;;;;;;;;;;;;;20.65;39.04;102415.97;7267335;19;154432;-79
2023/02/02 12:51:09;;;;;;;;;;;;;;;20.65;39.16;102430.03;7276228;19;154066;-79
2023/02/02 12:53:37;;;;;;;;;;;;;;;20.61;39.00;102426.06;7270199;19;153740;-79